Aérodrome :
LOGIN :

S'inscrire | Disclaimer

   EN    FR    IT 

 










Légende :    VFR   VFR Marginal   IFR   IFR Intensif   IFR Très Intensif
Visi : 
Plafond : 
>= 8 km
>= 3000ft
5 à 8 km
1000 à 3000 ft
1500m à 5 km
500 à 1000 ft
800 à 1500m
200 à 500 ft
< 800m
< 200 ft
Symboles :   Orages  Brouillard  Fortes neiges  Fortes précipitations  Vent > 20 kt
SIGMETs :   Divers  Orages  Givrage  Turbulence  Onde Orograph.  Cendres Volcan.







- Altitude de l'aérodrome : 22 ft
- Code IATA : TUN


DTTA - Tunis Carthage

DERNIER METAR :
  • 191100Z 28014KT 9999 FEW026 SCT040 15/07 Q1015 NOSIG

METARs EXPIRÉS :
  • 191030Z 27013KT 9999 FEW026 SCT040 15/08 Q1015 NOSIG
  • 191000Z 26012KT 230V290 9999 FEW026 SCT040 14/07 Q1015 NOSIG
  • 190930Z 26010KT 230V290 9999 FEW026 SCT040 13/07 Q1015 NOSIG
  • 190900Z 24009KT 9999 FEW026 SCT040 12/07 Q1015 NOSIG
  • 190830Z 24012KT 9999 FEW026 SCT040 11/07 Q1015 NOSIG

TAF TAF DTTA
Valide du 19 à 06h jusqu'au 20 à 06h UTC


190545Z 1906/2006 25010KT 9999 SCT020 BKN026
BECMG 1911/1913 33014KT 9999 SCT026
BECMG 1919/1921 24008KT
Pas de NOTAMs connus pour ce terrain.



MET'MAP, la Météo Aéronautique d'un coup d'oeil ! - Copyright ORBIFLY Décembre 2007 - Disclaimer

ORBIFLY MET'MAP TEAM :

Programmation & Développement : Alexandra Zaïnal
Conception & Développement : Baudouin d'Aumeries
Co-Programmation & Développement : Marc-Olivier Méhu
Soutien technique & logistique : Manuel Goepfert

Contact : metmap@orbifly.com




SOURCES & CREDITS :

   NOAA